createdAt,value
2023-02-04T00:00:41.457Z,5.97
2023-02-04T00:03:09.883Z,5.97
2023-02-04T00:05:39.738Z,5.83
2023-02-04T00:08:08.276Z,5.40
2023-02-04T00:10:37.653Z,4.43
2023-02-04T00:13:06.104Z,5.33
2023-02-04T00:15:34.498Z,5.17
2023-02-04T00:18:03.361Z,4.57
2023-02-04T00:20:32.201Z,5.00
2023-02-04T00:23:02.307Z,5.53
2023-02-04T00:25:30.736Z,5.10
2023-02-04T00:27:59.551Z,4.63
2023-02-04T00:30:28.505Z,4.43
2023-02-04T00:32:57.188Z,4.50
2023-02-04T00:35:25.852Z,4.40
2023-02-04T00:37:54.554Z,5.20
2023-02-04T00:40:24.452Z,5.17
2023-02-04T00:42:52.799Z,4.40
2023-02-04T00:45:21.478Z,5.07
2023-02-04T00:47:49.910Z,4.97
2023-02-04T00:50:18.893Z,4.87
2023-02-04T00:52:47.278Z,5.23
2023-02-04T00:55:17.146Z,5.53
2023-02-04T00:57:48.129Z,4.60
2023-02-04T01:00:17.849Z,4.77
2023-02-04T01:02:46.325Z,4.27
2023-02-04T01:05:15.254Z,5.43
2023-02-04T01:07:43.880Z,5.50
2023-02-04T01:10:12.976Z,4.60
2023-02-04T01:12:41.486Z,4.80
2023-02-04T01:15:12.406Z,4.37
2023-02-04T01:17:41.863Z,6.37
2023-02-04T01:20:11.362Z,4.27
2023-02-04T01:22:39.831Z,5.73
2023-02-04T01:25:09.269Z,4.90
2023-02-04T01:27:44.032Z,4.23
2023-02-04T01:30:15.697Z,4.23
2023-02-04T01:32:44.245Z,3.90
2023-02-04T01:35:12.702Z,3.50
2023-02-04T01:37:41.097Z,4.80
2023-02-04T01:40:10.693Z,4.83
2023-02-04T01:42:39.681Z,5.53
2023-02-04T01:45:10.912Z,5.03
2023-02-04T01:47:41.158Z,6.40
2023-02-04T01:50:12.540Z,4.60
2023-02-04T01:52:41.677Z,6.33
2023-02-04T01:55:16.545Z,5.33
2023-02-04T01:57:46.116Z,4.97
2023-02-04T02:00:18.546Z,6.03
2023-02-04T02:02:52.259Z,5.57
2023-02-04T02:05:23.657Z,5.23
2023-02-04T02:07:55.262Z,4.57
2023-02-04T02:10:25.030Z,5.77
2023-02-04T02:12:55.012Z,5.37
2023-02-04T02:15:24.842Z,4.70
2023-02-04T02:17:56.003Z,4.80
2023-02-04T02:20:26.886Z,4.70
2023-02-04T02:23:17.224Z,4.90
2023-02-04T02:25:47.856Z,4.73
2023-02-04T02:28:19.857Z,5.07
2023-02-04T02:30:49.976Z,5.40
2023-02-04T02:33:22.203Z,5.70
2023-02-04T02:35:51.270Z,5.20
2023-02-04T02:38:21.188Z,5.10
2023-02-04T02:40:52.677Z,5.60
2023-02-04T02:43:25.158Z,6.27
2023-02-04T02:45:54.476Z,4.90
2023-02-04T02:48:22.918Z,5.13
2023-02-04T02:50:51.797Z,4.87
2023-02-04T02:53:23.002Z,4.73
2023-02-04T02:55:53.395Z,6.67
2023-02-04T02:58:27.949Z,6.27
2023-02-04T03:00:58.778Z,5.33
2023-02-04T03:03:31.523Z,4.83
2023-02-04T03:06:06.071Z,5.00
2023-02-04T03:08:35.109Z,4.80
2023-02-04T03:11:05.559Z,6.03
2023-02-04T03:13:35.167Z,5.47
2023-02-04T03:16:04.619Z,5.50
2023-02-04T03:18:33.649Z,5.00
2023-02-04T03:21:04.980Z,6.07
2023-02-04T03:23:34.344Z,5.73
2023-02-04T03:26:06.226Z,5.40
2023-02-04T03:28:40.874Z,5.97
2023-02-04T03:31:10.525Z,6.07
2023-02-04T03:33:38.869Z,5.27
2023-02-04T03:36:08.127Z,5.60
2023-02-04T03:38:36.480Z,6.90
2023-02-04T03:41:06.676Z,5.97
2023-02-04T03:43:35.278Z,5.67
2023-02-04T03:46:03.549Z,5.10
2023-02-04T03:48:32.216Z,5.10
2023-02-04T03:51:00.658Z,6.30
2023-02-04T03:53:29.440Z,6.00
2023-02-04T03:55:57.930Z,6.87
2023-02-04T03:58:27.667Z,6.07
2023-02-04T04:00:56.174Z,6.43
2023-02-04T04:03:24.546Z,5.43
2023-02-04T04:05:52.834Z,7.60
2023-02-04T04:08:21.212Z,6.63
2023-02-04T04:10:49.493Z,5.17
2023-02-04T04:13:17.895Z,5.47
2023-02-04T04:15:47.847Z,5.53
2023-02-04T04:18:17.506Z,5.73
2023-02-04T04:20:46.462Z,7.50
2023-02-04T04:23:14.940Z,6.80
2023-02-04T04:25:43.372Z,6.30
2023-02-04T04:28:13.182Z,5.87
2023-02-04T04:30:41.740Z,7.43
2023-02-04T04:33:11.733Z,6.33
2023-02-04T04:35:40.304Z,7.97
2023-02-04T04:38:08.669Z,7.60
2023-02-04T04:40:36.985Z,6.83
2023-02-04T04:43:05.329Z,4.73
2023-02-04T04:45:34.618Z,6.83
2023-02-04T04:48:02.962Z,6.67
2023-02-04T04:50:33.010Z,6.43
2023-02-04T04:53:01.571Z,6.53
2023-02-04T04:55:30.708Z,5.73
2023-02-04T04:57:59.080Z,5.63
2023-02-04T05:00:27.922Z,5.20
2023-02-04T05:02:56.689Z,6.30
2023-02-04T05:05:27.571Z,6.40
2023-02-04T05:07:57.627Z,5.10
2023-02-04T05:10:26.176Z,8.73
2023-02-04T05:12:54.517Z,7.53
2023-02-04T05:15:22.951Z,8.83
2023-02-04T05:17:51.359Z,7.53
2023-02-04T05:20:20.051Z,7.10
2023-02-04T05:22:48.361Z,7.07
2023-02-04T05:25:18.708Z,7.47
2023-02-04T05:27:47.141Z,7.97
2023-02-04T05:30:16.434Z,7.07
2023-02-04T05:32:44.826Z,7.10
2023-02-04T05:35:13.310Z,7.47
2023-02-04T05:37:41.970Z,6.90
2023-02-04T05:40:11.144Z,7.53
2023-02-04T05:42:41.977Z,6.63
2023-02-04T05:45:15.777Z,6.70
2023-02-04T05:47:44.227Z,5.43
2023-02-04T05:50:12.783Z,7.13
2023-02-04T05:52:41.551Z,6.60
2023-02-04T05:55:11.660Z,7.00
2023-02-04T05:57:41.468Z,6.80
2023-02-04T06:00:11.128Z,8.83
2023-02-04T06:02:42.579Z,5.77
2023-02-04T06:05:10.914Z,6.33
2023-02-04T06:07:39.564Z,6.60
2023-02-04T06:10:07.983Z,7.23
2023-02-04T06:12:36.425Z,7.33
2023-02-04T06:15:07.301Z,7.63
2023-02-04T06:17:35.759Z,7.60
2023-02-04T06:20:04.555Z,5.90
2023-02-04T06:22:33.180Z,7.10
2023-02-04T06:25:01.675Z,6.73
2023-02-04T06:27:30.039Z,8.23
2023-02-04T06:29:58.443Z,7.90
2023-02-04T06:32:28.316Z,8.43
2023-02-04T06:34:56.712Z,8.70
2023-02-04T06:37:25.086Z,7.00
2023-02-04T06:39:54.795Z,7.63
2023-02-04T06:42:23.212Z,7.27
2023-02-04T06:44:51.588Z,7.77
2023-02-04T06:47:20.377Z,7.30
2023-02-04T06:49:50.200Z,7.90
2023-02-04T06:52:18.599Z,8.30
2023-02-04T06:54:46.972Z,8.00
2023-02-04T06:57:15.459Z,8.97
2023-02-04T06:59:44.317Z,8.07
2023-02-04T07:02:13.348Z,7.97
2023-02-04T07:04:43.810Z,8.43
2023-02-04T07:07:13.703Z,6.40
2023-02-04T07:09:42.698Z,9.40
2023-02-04T07:12:11.281Z,8.03
2023-02-04T07:14:39.708Z,8.40
2023-02-04T07:17:08.141Z,9.87
2023-02-04T07:19:37.680Z,8.70
2023-02-04T07:22:06.279Z,7.63
2023-02-04T07:24:36.028Z,8.37
2023-02-04T07:27:04.482Z,8.50
2023-02-04T07:29:32.958Z,10.30
2023-02-04T07:32:01.571Z,11.40
2023-02-04T07:34:30.337Z,15.60
2023-02-04T07:36:58.986Z,11.63
2023-02-04T07:39:27.580Z,12.50
2023-02-04T07:41:57.411Z,13.53
2023-02-04T07:44:33.875Z,12.13
2023-02-04T07:47:02.181Z,14.20
2023-02-04T07:49:30.647Z,12.43
2023-02-04T07:51:59.083Z,14.43
2023-02-04T07:54:27.493Z,13.60
2023-02-04T07:56:57.278Z,13.23
2023-02-04T07:59:25.671Z,13.67
2023-02-04T08:01:54.072Z,12.50
2023-02-04T08:04:22.336Z,15.10
2023-02-04T08:06:50.724Z,14.37
2023-02-04T08:09:19.214Z,15.40
2023-02-04T08:11:47.648Z,17.37
2023-02-04T08:14:17.443Z,18.03
2023-02-04T08:16:45.946Z,16.90
2023-02-04T08:19:19.048Z,17.73
2023-02-04T08:21:48.008Z,18.17
2023-02-04T08:24:17.320Z,20.33
2023-02-04T08:26:46.614Z,17.87
2023-02-04T08:29:15.083Z,18.90
2023-02-04T08:31:45.227Z,19.47
2023-02-04T08:34:13.651Z,17.93
2023-02-04T08:36:42.189Z,19.87
2023-02-04T08:39:10.548Z,18.23
2023-02-04T08:41:38.918Z,18.60
2023-02-04T08:44:07.603Z,19.67
2023-02-04T08:46:36.213Z,19.30
2023-02-04T08:49:06.045Z,19.93
2023-02-04T08:51:34.490Z,19.00
2023-02-04T08:54:03.055Z,19.07
2023-02-04T08:56:31.547Z,19.93
2023-02-04T08:58:59.904Z,18.53
2023-02-04T09:01:28.440Z,18.70
2023-02-04T09:03:56.836Z,17.50
2023-02-04T09:06:26.765Z,18.70
2023-02-04T09:08:55.313Z,18.00
2023-02-04T09:11:23.756Z,16.77
2023-02-04T09:13:52.037Z,17.90
2023-02-04T09:16:20.528Z,18.63
2023-02-04T09:18:49.163Z,17.90
2023-02-04T09:21:17.617Z,17.97
2023-02-04T09:23:48.786Z,16.03
2023-02-04T09:26:17.625Z,17.47
2023-02-04T09:28:47.560Z,15.73
2023-02-04T09:31:16.486Z,16.40
2023-02-04T09:33:45.166Z,15.63
2023-02-04T09:36:13.746Z,15.50
2023-02-04T09:38:42.260Z,15.70
2023-02-04T09:41:14.495Z,16.77
2023-02-04T09:43:45.407Z,14.77
2023-02-04T09:46:21.836Z,16.33
2023-02-04T09:48:51.948Z,15.17
2023-02-04T09:51:24.792Z,15.23
2023-02-04T09:53:55.530Z,15.13
2023-02-04T09:56:26.262Z,14.60
2023-02-04T09:58:54.796Z,14.47
2023-02-04T10:01:23.337Z,15.07
2023-02-04T10:03:51.857Z,13.50
2023-02-04T10:06:22.621Z,15.13
2023-02-04T10:08:53.448Z,14.20
2023-02-04T10:11:23.525Z,14.27
2023-02-04T10:13:56.170Z,13.27
2023-02-04T10:16:30.095Z,13.30
2023-02-04T10:19:00.000Z,14.53
2023-02-04T10:21:30.499Z,13.90
2023-02-04T10:24:01.033Z,11.77
2023-02-04T10:26:32.119Z,13.03
2023-02-04T10:29:04.288Z,13.40
2023-02-04T10:31:37.888Z,12.67
2023-02-04T10:34:10.905Z,12.10
2023-02-04T10:36:39.673Z,11.83
2023-02-04T10:39:13.748Z,13.60
2023-02-04T10:41:49.710Z,13.57
2023-02-04T10:44:26.882Z,13.97
2023-02-04T10:47:00.698Z,12.97
2023-02-04T10:49:29.782Z,14.17
2023-02-04T10:51:58.574Z,13.83
2023-02-04T10:54:31.207Z,13.80
2023-02-04T10:57:12.875Z,13.40
2023-02-04T10:59:43.237Z,13.60
2023-02-04T11:02:34.068Z,14.47
2023-02-04T11:05:02.719Z,14.53
2023-02-04T11:07:31.487Z,15.33
2023-02-04T11:09:59.991Z,14.43
2023-02-04T11:12:41.200Z,13.83
2023-02-04T11:15:45.595Z,14.47
2023-02-04T11:18:27.705Z,13.90
2023-02-04T11:21:02.246Z,13.53
2023-02-04T11:23:34.257Z,13.97
2023-02-04T11:26:04.852Z,11.70
2023-02-04T11:28:51.338Z,13.27
2023-02-04T11:31:43.480Z,12.97
2023-02-04T11:34:28.546Z,12.20
2023-02-04T11:37:05.805Z,13.17
2023-02-04T11:39:37.646Z,13.37
2023-02-04T11:42:06.670Z,12.30
2023-02-04T11:44:35.377Z,12.30
2023-02-04T11:47:09.266Z,11.93
2023-02-04T11:49:38.261Z,11.70
2023-02-04T11:52:09.106Z,12.00
2023-02-04T11:54:38.101Z,10.80
2023-02-04T11:57:06.886Z,10.63
2023-02-04T11:59:35.442Z,8.83
2023-02-04T12:02:17.852Z,9.13
2023-02-04T12:04:54.445Z,9.17
2023-02-04T12:07:27.431Z,10.93
2023-02-04T12:09:56.268Z,10.47
2023-02-04T12:12:26.790Z,10.47
2023-02-04T12:14:59.884Z,8.43
2023-02-04T12:17:29.824Z,9.50
2023-02-04T12:19:58.357Z,7.43
2023-02-04T12:22:26.732Z,8.83
2023-02-04T12:24:55.122Z,9.83
2023-02-04T12:27:23.671Z,8.90
2023-02-04T12:29:52.164Z,9.77
2023-02-04T12:32:20.718Z,9.57
2023-02-04T12:34:50.527Z,9.20
2023-02-04T12:37:18.877Z,10.17
2023-02-04T12:39:47.576Z,8.77
2023-02-04T12:42:16.067Z,9.10
2023-02-04T12:44:44.634Z,9.27
2023-02-04T12:47:13.015Z,9.10
2023-02-04T12:49:41.675Z,8.90
2023-02-04T12:52:11.549Z,7.57
2023-02-04T12:54:39.922Z,7.60
2023-02-04T12:57:09.331Z,8.60
2023-02-04T12:59:37.820Z,8.37
2023-02-04T13:02:06.555Z,8.33
2023-02-04T13:04:34.969Z,6.97
2023-02-04T13:07:03.768Z,7.13
2023-02-04T13:09:34.057Z,7.27
2023-02-04T13:12:02.469Z,7.07
2023-02-04T13:14:32.651Z,7.53
2023-02-04T13:17:01.168Z,8.63
2023-02-04T13:19:29.649Z,6.90
2023-02-04T13:21:58.245Z,7.73
2023-02-04T13:24:27.225Z,8.23
2023-02-04T13:26:57.045Z,8.03
2023-02-04T13:29:25.409Z,7.30
2023-02-04T13:31:53.916Z,6.47
2023-02-04T13:34:22.573Z,7.07
2023-02-04T13:36:50.981Z,7.37
2023-02-04T13:39:19.420Z,8.50
2023-02-04T13:41:48.214Z,7.03
2023-02-04T13:44:18.325Z,7.53
2023-02-04T13:46:46.731Z,6.70
2023-02-04T13:49:15.084Z,6.83
2023-02-04T13:51:43.588Z,7.07
2023-02-04T13:54:12.556Z,6.63
2023-02-04T13:56:41.341Z,7.43
2023-02-04T13:59:09.716Z,6.77
2023-02-04T14:01:39.557Z,7.33
2023-02-04T14:04:07.929Z,6.97
2023-02-04T14:06:43.431Z,7.00
2023-02-04T14:09:12.907Z,7.73
2023-02-04T14:11:42.171Z,8.10
2023-02-04T14:14:10.630Z,8.40
2023-02-04T14:16:40.747Z,7.73
2023-02-04T14:19:09.590Z,8.00
2023-02-04T14:21:38.015Z,7.23
2023-02-04T14:24:06.808Z,8.23
2023-02-04T14:26:35.303Z,8.27
2023-02-04T14:29:04.542Z,6.80
2023-02-04T14:31:33.047Z,7.20
2023-02-04T14:34:02.931Z,8.20
2023-02-04T14:36:31.414Z,7.37
2023-02-04T14:38:59.845Z,8.70
2023-02-04T14:41:30.154Z,8.80
2023-02-04T14:43:58.841Z,8.03
2023-02-04T14:46:27.403Z,9.57
2023-02-04T14:48:55.927Z,8.87
2023-02-04T14:51:25.953Z,8.63
2023-02-04T14:53:54.450Z,9.00
2023-02-04T14:56:22.890Z,7.47
2023-02-04T14:58:51.338Z,8.33
2023-02-04T15:01:20.046Z,7.67
2023-02-04T15:03:48.566Z,8.20
2023-02-04T15:06:16.967Z,7.00
2023-02-04T15:08:46.867Z,7.57
2023-02-04T15:11:15.313Z,7.37
2023-02-04T15:13:43.601Z,7.17
2023-02-04T15:16:12.487Z,7.63
2023-02-04T15:18:41.270Z,7.33
2023-02-04T15:21:09.622Z,7.37
2023-02-04T15:23:37.966Z,7.60
2023-02-04T15:26:07.862Z,7.97
2023-02-04T15:28:36.988Z,8.57
2023-02-04T15:31:05.659Z,8.77
2023-02-04T15:33:34.154Z,7.37
2023-02-04T15:36:02.902Z,8.00
2023-02-04T15:38:31.614Z,9.90
2023-02-04T15:40:59.968Z,12.80
2023-02-04T15:43:29.765Z,10.13
2023-02-04T15:45:58.412Z,13.60
2023-02-04T15:48:27.632Z,19.50
2023-02-04T15:50:56.991Z,15.63
2023-02-04T15:53:25.684Z,12.90
2023-02-04T15:55:54.321Z,10.87
2023-02-04T15:58:22.908Z,9.43
2023-02-04T16:00:52.882Z,9.43
2023-02-04T16:03:21.322Z,8.57
2023-02-04T16:05:49.875Z,8.40
2023-02-04T16:08:18.371Z,8.23
2023-02-04T16:10:46.694Z,7.03
2023-02-04T16:13:15.109Z,8.03
2023-02-04T16:15:43.573Z,7.97
2023-02-04T16:18:13.744Z,7.83
2023-02-04T16:20:42.435Z,7.60
2023-02-04T16:23:10.846Z,7.90
2023-02-04T16:25:39.399Z,7.23
2023-02-04T16:28:08.046Z,9.17
2023-02-04T16:30:36.551Z,7.83
2023-02-04T16:33:05.132Z,8.90
2023-02-04T16:35:59.462Z,7.13
2023-02-04T16:38:29.015Z,7.77
2023-02-04T16:40:58.129Z,9.00
2023-02-04T16:43:27.020Z,8.23
2023-02-04T16:45:55.869Z,8.87
2023-02-04T16:48:24.841Z,8.63
2023-02-04T16:50:54.729Z,8.43
2023-02-04T16:53:23.885Z,8.80
2023-02-04T16:55:52.268Z,9.63
2023-02-04T16:58:20.578Z,9.83
2023-02-04T17:00:50.305Z,9.27
2023-02-04T17:03:19.010Z,10.47
2023-02-04T17:05:47.550Z,8.20
2023-02-04T17:08:17.472Z,8.20
2023-02-04T17:11:18.046Z,8.83
2023-02-04T17:13:46.677Z,8.53
2023-02-04T17:16:15.436Z,8.70
2023-02-04T17:18:43.946Z,7.90
2023-02-04T17:21:12.736Z,7.87
2023-02-04T17:23:42.767Z,9.03
2023-02-04T17:26:11.340Z,7.07
2023-02-04T17:28:39.781Z,8.30
2023-02-04T17:31:08.385Z,7.80
2023-02-04T17:33:36.941Z,7.90
2023-02-04T17:36:07.215Z,8.60
2023-02-04T17:38:35.991Z,8.67
2023-02-04T17:41:06.078Z,8.57
2023-02-04T17:43:37.266Z,8.70
2023-02-04T17:46:06.057Z,8.80
2023-02-04T17:48:34.764Z,9.03
2023-02-04T17:51:03.804Z,9.17
2023-02-04T17:53:32.873Z,8.07
2023-02-04T17:56:02.304Z,9.10
2023-02-04T17:58:32.055Z,8.17
2023-02-04T18:01:01.044Z,8.70
2023-02-04T18:03:30.794Z,6.43
2023-02-04T18:06:00.600Z,7.10
2023-02-04T18:08:36.784Z,9.03
2023-02-04T18:11:16.831Z,7.87
2023-02-04T18:13:48.678Z,8.73
2023-02-04T18:16:25.335Z,9.60
2023-02-04T18:18:55.697Z,9.30
2023-02-04T18:21:26.002Z,9.97
2023-02-04T18:24:03.140Z,9.33
2023-02-04T18:26:33.998Z,8.97
2023-02-04T18:29:20.628Z,7.67
2023-02-04T18:31:53.427Z,7.80
2023-02-04T18:34:34.485Z,9.57
2023-02-04T18:37:31.508Z,8.50
2023-02-04T18:40:24.462Z,8.57
2023-02-04T18:43:06.717Z,9.47
2023-02-04T18:45:36.988Z,9.13
2023-02-04T18:48:50.363Z,9.07
2023-02-04T18:51:27.169Z,9.30
2023-02-04T18:53:59.740Z,9.83
2023-02-04T18:56:28.522Z,10.27
2023-02-04T18:58:57.172Z,11.87
2023-02-04T19:01:28.142Z,12.50
2023-02-04T19:03:59.442Z,10.97
2023-02-04T19:06:30.733Z,10.97
2023-02-04T19:09:11.276Z,12.00
2023-02-04T19:11:42.608Z,9.57
2023-02-04T19:14:19.337Z,9.80
2023-02-04T19:16:50.830Z,11.90
2023-02-04T19:19:39.365Z,11.93
2023-02-04T19:22:20.183Z,10.87
2023-02-04T19:24:49.401Z,9.80
2023-02-04T19:27:30.165Z,11.00
2023-02-04T19:30:00.090Z,10.93
2023-02-04T19:32:33.765Z,9.33
2023-02-04T19:35:13.841Z,10.13
2023-02-04T19:37:43.045Z,9.30
2023-02-04T19:40:30.466Z,10.37
2023-02-04T19:43:05.354Z,9.13
2023-02-04T19:45:35.580Z,9.77
2023-02-04T19:48:19.008Z,10.40
2023-02-04T19:50:47.779Z,13.07
2023-02-04T19:53:20.870Z,15.10
2023-02-04T19:55:52.070Z,13.90
2023-02-04T19:58:23.364Z,13.30
2023-02-04T20:01:00.273Z,13.27
2023-02-04T20:03:36.782Z,13.80
2023-02-04T20:06:27.507Z,13.53
2023-02-04T20:08:57.234Z,12.87
2023-02-04T20:11:45.367Z,13.17
2023-02-04T20:14:24.853Z,12.03
2023-02-04T20:16:55.888Z,10.13
2023-02-04T20:19:34.776Z,11.67
2023-02-04T20:22:30.215Z,11.90
2023-02-04T20:25:07.759Z,12.37
2023-02-04T20:27:38.723Z,11.53
2023-02-04T20:30:24.805Z,12.60
2023-02-04T20:32:55.752Z,11.90
2023-02-04T20:36:00.355Z,11.90
2023-02-04T20:38:30.188Z,12.13
2023-02-04T20:40:58.730Z,11.00
2023-02-04T20:43:27.211Z,10.80
2023-02-04T20:45:58.178Z,11.53
2023-02-04T20:48:34.567Z,10.10
2023-02-04T20:51:04.804Z,11.13
2023-02-04T20:53:42.063Z,11.20
2023-02-04T20:56:28.940Z,11.73
2023-02-04T20:59:04.237Z,10.27
2023-02-04T21:01:35.074Z,11.13
2023-02-04T21:04:19.482Z,11.70
2023-02-04T21:06:48.185Z,10.23
2023-02-04T21:09:24.225Z,10.87
2023-02-04T21:11:54.259Z,11.50
2023-02-04T21:14:23.856Z,10.83
2023-02-04T21:16:52.769Z,10.30
2023-02-04T21:19:22.040Z,11.83
2023-02-04T21:21:50.605Z,11.33
2023-02-04T21:24:21.700Z,10.73
2023-02-04T21:26:50.251Z,11.67
2023-02-04T21:29:18.879Z,12.03
2023-02-04T21:31:47.763Z,11.23
2023-02-04T21:34:16.689Z,12.00
2023-02-04T21:36:48.177Z,11.13
2023-02-04T21:39:16.699Z,11.93
2023-02-04T21:41:46.501Z,10.40
2023-02-04T21:44:14.889Z,10.50
2023-02-04T21:46:43.390Z,10.33
2023-02-04T21:49:12.339Z,11.40
2023-02-04T21:51:41.074Z,12.57
2023-02-04T21:54:09.647Z,13.17
2023-02-04T21:56:38.014Z,12.30
2023-02-04T21:59:08.004Z,11.83
2023-02-04T22:01:36.874Z,11.40
2023-02-04T22:04:05.611Z,11.03
2023-02-04T22:06:34.306Z,12.90
2023-02-04T22:09:02.764Z,11.13
2023-02-04T22:11:31.336Z,10.73
2023-02-04T22:14:17.313Z,10.37
2023-02-04T22:16:47.211Z,10.90
2023-02-04T22:19:16.168Z,10.13
2023-02-04T22:21:45.837Z,11.30
2023-02-04T22:24:14.639Z,14.00
2023-02-04T22:26:43.729Z,14.67
2023-02-04T22:29:12.567Z,12.90
2023-02-04T22:31:41.112Z,14.93
2023-02-04T22:34:10.987Z,15.17
2023-02-04T22:36:39.501Z,16.57
2023-02-04T22:39:08.871Z,16.17
2023-02-04T22:41:37.298Z,15.70
2023-02-04T22:44:06.020Z,14.47
2023-02-04T22:46:34.584Z,17.90
2023-02-04T22:49:03.231Z,16.77
2023-02-04T22:51:33.408Z,18.40
2023-02-04T22:54:02.264Z,17.47
2023-02-04T22:56:30.887Z,18.17
2023-02-04T22:58:59.184Z,16.50
2023-02-04T23:01:27.488Z,15.73
2023-02-04T23:03:56.060Z,15.50
2023-02-04T23:06:24.588Z,15.23
2023-02-04T23:08:55.053Z,17.50
2023-02-04T23:11:24.958Z,16.70
2023-02-04T23:13:53.512Z,15.50
2023-02-04T23:16:22.042Z,17.73
2023-02-04T23:18:50.582Z,18.50
2023-02-04T23:21:20.868Z,18.80
2023-02-04T23:23:49.618Z,19.97
2023-02-04T23:26:19.936Z,16.47
2023-02-04T23:28:48.257Z,17.50
2023-02-04T23:31:16.784Z,19.17
2023-02-04T23:33:45.204Z,20.17
2023-02-04T23:36:13.639Z,19.90
2023-02-04T23:38:42.001Z,21.30
2023-02-04T23:41:10.705Z,20.83
2023-02-04T23:43:40.537Z,19.53
2023-02-04T23:46:09.306Z,19.93
2023-02-04T23:48:37.866Z,20.17
2023-02-04T23:51:06.457Z,18.30
2023-02-04T23:53:34.941Z,18.77
2023-02-04T23:56:03.341Z,17.17
2023-02-04T23:58:31.717Z,17.13
